createdAt,value
2018-06-05T00:00:28.741Z,24.90
2018-06-05T00:01:00.464Z,24.90
2018-06-05T00:01:32.246Z,24.90
2018-06-05T00:02:03.940Z,24.90
2018-06-05T00:02:35.651Z,24.90
2018-06-05T00:03:07.399Z,24.90
2018-06-05T00:03:39.121Z,24.90
2018-06-05T00:04:10.840Z,24.90
2018-06-05T00:04:42.558Z,24.90
2018-06-05T00:05:14.262Z,24.90
2018-06-05T00:05:45.988Z,24.90
2018-06-05T00:06:17.717Z,24.90
2018-06-05T00:06:49.417Z,24.90
2018-06-05T00:07:21.136Z,24.90
2018-06-05T00:07:52.869Z,24.90
2018-06-05T00:08:24.564Z,24.90
2018-06-05T00:08:56.271Z,24.90
2018-06-05T00:09:27.994Z,24.80
2018-06-05T00:09:59.762Z,24.80
2018-06-05T00:10:31.510Z,24.80
2018-06-05T00:11:03.193Z,24.80
2018-06-05T00:11:34.917Z,24.70
2018-06-05T00:12:06.637Z,24.70
2018-06-05T00:12:38.364Z,24.70
2018-06-05T00:13:10.064Z,24.70
2018-06-05T00:13:41.829Z,24.70
2018-06-05T00:14:13.548Z,24.60
2018-06-05T00:14:45.260Z,24.60
2018-06-05T00:15:16.970Z,24.60
2018-06-05T00:15:48.706Z,24.60
2018-06-05T00:16:20.409Z,24.50
2018-06-05T00:16:52.200Z,24.50
2018-06-05T00:17:23.939Z,24.50
2018-06-05T00:17:55.637Z,24.50
2018-06-05T00:18:27.349Z,24.50
2018-06-05T00:18:59.067Z,24.50
2018-06-05T00:19:30.769Z,24.50
2018-06-05T00:20:02.485Z,24.50
2018-06-05T00:20:34.188Z,24.50
2018-06-05T00:21:05.905Z,24.50
2018-06-05T00:21:37.722Z,24.50
2018-06-05T00:22:09.412Z,24.40
2018-06-05T00:22:41.122Z,24.50
2018-06-05T00:23:12.850Z,24.50
2018-06-05T00:23:44.552Z,24.40
2018-06-05T00:24:16.397Z,24.50
2018-06-05T00:24:48.182Z,24.50
2018-06-05T00:25:19.885Z,24.40
2018-06-05T00:25:51.608Z,24.50
2018-06-05T00:26:23.321Z,24.40
2018-06-05T00:26:55.048Z,24.50
2018-06-05T00:27:26.762Z,24.50
2018-06-05T00:27:58.472Z,24.50
2018-06-05T00:28:30.191Z,24.50
2018-06-05T00:29:01.910Z,24.50
2018-06-05T00:30:05.600Z,24.60
2018-06-05T00:30:37.344Z,24.60
2018-06-05T00:31:09.047Z,24.60
2018-06-05T00:31:40.782Z,24.60
2018-06-05T00:32:12.501Z,24.60
2018-06-05T00:32:44.210Z,24.60
2018-06-05T00:33:15.918Z,24.60
2018-06-05T00:33:47.627Z,24.60
2018-06-05T00:34:19.342Z,24.60
2018-06-05T00:34:51.088Z,24.60
2018-06-05T00:35:22.807Z,24.60
2018-06-05T00:35:54.523Z,24.60
2018-06-05T00:36:26.219Z,24.60
2018-06-05T00:36:57.950Z,24.60
2018-06-05T00:37:29.678Z,24.60
2018-06-05T00:38:01.385Z,24.50
2018-06-05T00:38:33.110Z,24.60
2018-06-05T00:39:04.819Z,24.50
2018-06-05T00:39:36.521Z,24.60
2018-06-05T00:40:08.254Z,24.60
2018-06-05T00:40:39.964Z,24.50
2018-06-05T00:41:11.737Z,24.60
2018-06-05T00:41:43.390Z,24.60
2018-06-05T00:42:15.111Z,24.60
2018-06-05T00:42:46.860Z,24.60
2018-06-05T00:43:18.565Z,24.50
2018-06-05T00:43:50.278Z,24.60
2018-06-05T00:44:22.032Z,24.50
2018-06-05T00:44:53.725Z,24.50
2018-06-05T00:45:25.502Z,24.50
2018-06-05T00:45:57.198Z,24.50
2018-06-05T00:46:28.909Z,24.50
2018-06-05T00:47:00.634Z,24.50
2018-06-05T00:47:32.448Z,24.50
2018-06-05T00:48:04.141Z,24.40
2018-06-05T00:48:35.853Z,24.50
2018-06-05T00:49:07.587Z,24.40
2018-06-05T00:49:39.305Z,24.40
2018-06-05T00:50:11.022Z,24.40
2018-06-05T00:50:42.744Z,24.40
2018-06-05T00:51:14.458Z,24.40
2018-06-05T00:51:46.202Z,24.40
2018-06-05T00:52:17.934Z,24.40
2018-06-05T00:52:49.642Z,24.40
2018-06-05T00:53:21.365Z,24.40
2018-06-05T00:53:53.077Z,24.40
2018-06-05T00:54:24.784Z,24.40
2018-06-05T00:54:56.627Z,24.40
2018-06-05T00:55:28.317Z,24.40
2018-06-05T00:56:00.014Z,24.40
2018-06-05T00:56:31.729Z,24.40
2018-06-05T00:57:03.435Z,24.40
2018-06-05T00:57:35.164Z,24.40
2018-06-05T00:58:06.869Z,24.40
2018-06-05T00:58:38.585Z,24.40
2018-06-05T00:59:10.310Z,24.40
2018-06-05T00:59:42.037Z,24.40
2018-06-05T01:00:13.736Z,24.40
2018-06-05T01:00:45.444Z,24.40
2018-06-05T01:01:17.168Z,24.40
2018-06-05T01:01:48.928Z,24.40
2018-06-05T01:02:20.621Z,24.40
2018-06-05T01:02:52.325Z,24.40
2018-06-05T01:03:24.028Z,24.40
2018-06-05T01:03:55.738Z,24.40
2018-06-05T01:04:27.480Z,24.40
2018-06-05T01:04:59.156Z,24.40
2018-06-05T01:05:30.865Z,24.40
2018-06-05T01:06:02.594Z,24.40
2018-06-05T01:06:34.317Z,24.40
2018-06-05T01:07:06.046Z,24.50
2018-06-05T01:07:37.769Z,24.50
2018-06-05T01:08:09.475Z,24.50
2018-06-05T01:08:41.188Z,24.50
2018-06-05T01:09:12.900Z,24.50
2018-06-05T01:09:44.597Z,24.50
2018-06-05T01:10:16.298Z,24.50
2018-06-05T01:10:48.073Z,24.50
2018-06-05T01:11:19.797Z,24.50
2018-06-05T01:11:51.500Z,24.50
2018-06-05T01:12:23.227Z,24.50
2018-06-05T01:12:54.955Z,24.50
2018-06-05T01:13:26.660Z,24.50
2018-06-05T01:13:58.367Z,24.50
2018-06-05T01:14:30.100Z,24.50
2018-06-05T01:15:01.817Z,24.50
2018-06-05T01:15:33.545Z,24.50
2018-06-05T01:16:05.242Z,24.50
2018-06-05T01:16:36.993Z,24.50
2018-06-05T01:17:08.702Z,24.50
2018-06-05T01:17:40.409Z,24.50
2018-06-05T01:18:12.161Z,24.50
2018-06-05T01:18:43.883Z,24.50
2018-06-05T01:19:15.599Z,24.50
2018-06-05T01:19:47.363Z,24.50
2018-06-05T01:20:19.072Z,24.50
2018-06-05T01:20:50.772Z,24.50
2018-06-05T01:21:22.513Z,24.50
2018-06-05T01:21:54.218Z,24.60
2018-06-05T01:22:25.933Z,24.50
2018-06-05T01:22:57.664Z,24.60
2018-06-05T01:23:29.364Z,24.60
2018-06-05T01:24:01.089Z,24.60
2018-06-05T01:24:32.838Z,24.60
2018-06-05T01:25:04.558Z,24.60
2018-06-05T01:25:36.279Z,24.70
2018-06-05T01:26:07.993Z,24.70
2018-06-05T01:26:39.709Z,24.70
2018-06-05T01:27:11.425Z,24.80
2018-06-05T01:27:43.166Z,24.70
2018-06-05T01:28:14.889Z,24.70
2018-06-05T01:28:46.594Z,24.70
2018-06-05T01:29:18.315Z,24.70
2018-06-05T01:29:50.057Z,24.70
2018-06-05T01:30:21.770Z,24.60
2018-06-05T01:30:53.479Z,24.60
2018-06-05T01:31:25.207Z,24.60
2018-06-05T01:31:56.926Z,24.60
2018-06-05T01:32:28.638Z,24.60
2018-06-05T01:33:00.350Z,24.50
2018-06-05T01:33:32.060Z,24.50
2018-06-05T01:34:03.787Z,24.50
2018-06-05T01:34:35.510Z,24.50
2018-06-05T01:35:07.219Z,24.50
2018-06-05T01:35:38.936Z,24.50
2018-06-05T01:36:10.647Z,24.50
2018-06-05T01:36:42.427Z,24.50
2018-06-05T01:37:14.135Z,24.50
2018-06-05T01:37:45.845Z,24.40
2018-06-05T01:38:17.569Z,24.50
2018-06-05T01:38:49.290Z,24.40
2018-06-05T01:39:20.989Z,24.50
2018-06-05T01:39:52.726Z,24.40
2018-06-05T01:40:24.447Z,24.40
2018-06-05T01:40:56.157Z,24.50
2018-06-05T01:41:27.938Z,24.40
2018-06-05T01:41:59.921Z,24.40
2018-06-05T01:42:31.769Z,24.40
2018-06-05T01:43:03.510Z,24.40
2018-06-05T01:43:35.219Z,24.40
2018-06-05T01:44:06.942Z,24.40
2018-06-05T01:44:38.678Z,24.40
2018-06-05T01:45:10.383Z,24.40
2018-06-05T01:45:42.098Z,24.40
2018-06-05T01:46:13.801Z,24.50
2018-06-05T01:46:45.513Z,24.50
2018-06-05T01:47:17.246Z,24.50
2018-06-05T01:47:48.957Z,24.50
2018-06-05T01:48:20.677Z,24.50
2018-06-05T01:48:52.392Z,24.50
2018-06-05T01:49:24.099Z,24.50
2018-06-05T01:49:55.838Z,24.50
2018-06-05T01:50:27.547Z,24.60
2018-06-05T01:50:59.249Z,24.60
2018-06-05T01:51:30.962Z,24.50
2018-06-05T01:52:02.677Z,24.60
2018-06-05T01:52:34.388Z,24.50
2018-06-05T01:53:06.104Z,24.50
2018-06-05T01:53:37.811Z,24.50
2018-06-05T01:54:09.592Z,24.50
2018-06-05T01:54:41.268Z,24.50
2018-06-05T01:55:12.971Z,24.50
2018-06-05T01:55:44.679Z,24.50
2018-06-05T01:56:16.403Z,24.50
2018-06-05T01:56:48.125Z,24.50
2018-06-05T01:57:19.843Z,24.50
2018-06-05T01:57:51.556Z,24.50
2018-06-05T01:58:23.259Z,24.50
2018-06-05T01:58:54.964Z,24.50
2018-06-05T01:59:26.705Z,24.50
2018-06-05T01:59:58.379Z,24.50
2018-06-05T02:00:30.085Z,24.50
2018-06-05T02:01:01.796Z,24.50
2018-06-05T02:01:33.495Z,24.50
2018-06-05T02:02:05.211Z,24.40
2018-06-05T02:02:36.922Z,24.40
2018-06-05T02:03:08.636Z,24.40
2018-06-05T02:03:40.345Z,24.40
2018-06-05T02:04:12.052Z,24.40
2018-06-05T02:04:43.778Z,24.40
2018-06-05T02:05:15.480Z,24.50
2018-06-05T02:05:47.194Z,24.50
2018-06-05T02:06:18.913Z,24.50
2018-06-05T02:06:50.606Z,24.40
2018-06-05T02:07:22.316Z,24.40
2018-06-05T02:07:54.030Z,24.50
2018-06-05T02:08:25.742Z,24.50
2018-06-05T02:08:57.445Z,24.50
2018-06-05T02:09:29.159Z,24.50
2018-06-05T02:10:00.980Z,24.60
2018-06-05T02:10:32.685Z,24.60
2018-06-05T02:11:04.402Z,24.60
2018-06-05T02:11:36.157Z,24.60
2018-06-05T02:12:07.865Z,24.60
2018-06-05T02:12:39.574Z,24.60
2018-06-05T02:13:11.355Z,24.60
2018-06-05T02:13:43.065Z,24.60
2018-06-05T02:14:14.780Z,24.60
2018-06-05T02:14:46.552Z,24.60
2018-06-05T02:15:18.294Z,24.60
2018-06-05T02:15:50.009Z,24.60
2018-06-05T02:16:21.742Z,24.60
2018-06-05T02:16:53.426Z,24.60
2018-06-05T02:17:25.155Z,24.70
2018-06-05T02:17:56.880Z,24.60
2018-06-05T02:18:28.590Z,24.60
2018-06-05T02:19:00.335Z,24.60
2018-06-05T02:19:32.042Z,24.70
2018-06-05T02:20:03.739Z,24.70
2018-06-05T02:20:35.457Z,24.60
2018-06-05T02:21:07.158Z,24.70
2018-06-05T02:21:38.880Z,24.70
2018-06-05T02:22:10.606Z,24.70
2018-06-05T02:22:42.306Z,24.70
2018-06-05T02:23:14.033Z,24.60
2018-06-05T02:23:45.757Z,24.60
2018-06-05T02:24:17.456Z,24.60
2018-06-05T02:24:49.165Z,24.60
2018-06-05T02:25:20.898Z,24.50
2018-06-05T02:25:52.627Z,24.50
2018-06-05T02:26:24.335Z,24.60
2018-06-05T02:26:56.047Z,24.60
2018-06-05T02:27:27.749Z,24.50
2018-06-05T02:27:59.454Z,24.60
2018-06-05T02:28:31.221Z,24.60
2018-06-05T02:29:02.964Z,24.60
2018-06-05T02:29:34.670Z,24.60
2018-06-05T02:30:06.389Z,24.60
2018-06-05T02:30:38.094Z,24.60
2018-06-05T02:31:09.807Z,24.60
2018-06-05T02:31:41.553Z,24.60
2018-06-05T02:32:13.269Z,24.60
2018-06-05T02:32:45.005Z,24.60
2018-06-05T02:33:16.792Z,24.60
2018-06-05T02:33:48.483Z,24.60
2018-06-05T02:34:20.223Z,24.60
2018-06-05T02:34:51.901Z,24.60
2018-06-05T02:35:23.631Z,24.60
2018-06-05T02:35:55.353Z,24.60
2018-06-05T02:36:27.072Z,24.60
2018-06-05T02:36:58.797Z,24.60
2018-06-05T02:37:30.530Z,24.60
2018-06-05T02:38:02.247Z,24.60
2018-06-05T02:38:33.961Z,24.60
2018-06-05T02:39:05.716Z,24.60
2018-06-05T02:39:37.397Z,24.60
2018-06-05T02:40:09.113Z,24.60
2018-06-05T02:40:40.814Z,24.60
2018-06-05T02:41:12.530Z,24.60
2018-06-05T02:41:44.277Z,24.50
2018-06-05T02:42:16.014Z,24.60
2018-06-05T02:42:47.738Z,24.50
2018-06-05T02:43:19.482Z,24.50
2018-06-05T02:43:51.202Z,24.60
2018-06-05T02:44:22.905Z,24.60
2018-06-05T02:44:54.612Z,24.60
2018-06-05T02:45:26.356Z,24.50
2018-06-05T02:45:58.069Z,24.50
2018-06-05T02:46:29.789Z,24.50
2018-06-05T02:47:01.489Z,24.60
2018-06-05T02:47:33.209Z,24.50
2018-06-05T02:48:04.924Z,24.50
2018-06-05T02:48:36.622Z,24.60
2018-06-05T02:49:08.329Z,24.50
2018-06-05T02:49:40.054Z,24.50
2018-06-05T02:50:11.783Z,24.50
2018-06-05T02:50:43.499Z,24.50
2018-06-05T02:51:15.236Z,24.50
2018-06-05T02:51:46.973Z,24.50
2018-06-05T02:52:18.727Z,24.50
2018-06-05T02:52:50.433Z,24.50
2018-06-05T02:53:22.133Z,24.50
2018-06-05T02:53:53.842Z,24.50
2018-06-05T02:54:25.590Z,24.50
2018-06-05T02:54:57.278Z,24.50
2018-06-05T02:55:28.986Z,24.50
2018-06-05T02:56:00.705Z,24.50
2018-06-05T02:56:32.410Z,24.50
2018-06-05T02:57:04.137Z,24.50
2018-06-05T02:57:35.821Z,24.50
2018-06-05T02:58:07.527Z,24.50
2018-06-05T02:58:39.227Z,24.40
2018-06-05T02:59:10.945Z,24.50
2018-06-05T02:59:42.642Z,24.40
2018-06-05T03:00:14.353Z,24.50
2018-06-05T03:00:46.076Z,24.40
2018-06-05T03:01:17.799Z,24.40
2018-06-05T03:01:49.503Z,24.50
2018-06-05T03:02:21.253Z,24.40
2018-06-05T03:02:52.953Z,24.50
2018-06-05T03:03:24.680Z,24.50
2018-06-05T03:03:56.417Z,24.50
2018-06-05T03:04:28.141Z,24.50
2018-06-05T03:04:59.843Z,24.50
2018-06-05T03:05:31.539Z,24.40
2018-06-05T03:06:03.361Z,24.40
2018-06-05T03:06:35.040Z,24.50
2018-06-05T03:07:06.753Z,24.40
2018-06-05T03:07:38.455Z,24.40
2018-06-05T03:08:10.166Z,24.40
2018-06-05T03:08:41.869Z,24.40
2018-06-05T03:09:13.570Z,24.40
2018-06-05T03:09:45.269Z,24.40
2018-06-05T03:10:17.003Z,24.40
2018-06-05T03:10:48.778Z,24.40
2018-06-05T03:11:20.457Z,24.40
2018-06-05T03:11:52.172Z,24.40
2018-06-05T03:12:23.901Z,24.40
2018-06-05T03:12:55.605Z,24.40
2018-06-05T03:13:27.332Z,24.40
2018-06-05T03:13:59.037Z,24.40
2018-06-05T03:14:30.764Z,24.40
2018-06-05T03:15:02.470Z,24.40
2018-06-05T03:15:34.181Z,24.40
2018-06-05T03:16:05.944Z,24.40
2018-06-05T03:16:37.649Z,24.50
2018-06-05T03:17:09.367Z,24.40
2018-06-05T03:17:41.093Z,24.40
2018-06-05T03:18:12.796Z,24.50
2018-06-05T03:18:44.506Z,24.50
2018-06-05T03:19:16.230Z,24.50
2018-06-05T03:20:20.000Z,24.50
2018-06-05T03:20:51.686Z,24.50
2018-06-05T03:21:23.413Z,24.50
2018-06-05T03:21:55.155Z,24.50
2018-06-05T03:22:26.862Z,24.50
2018-06-05T03:22:58.577Z,24.50
2018-06-05T03:23:30.288Z,24.60
2018-06-05T03:24:02.131Z,24.60
2018-06-05T03:24:33.835Z,24.50
2018-06-05T03:25:05.646Z,24.50
2018-06-05T03:25:37.321Z,24.50
2018-06-05T03:26:09.065Z,24.50
2018-06-05T03:26:40.804Z,24.50
2018-06-05T03:27:12.521Z,24.50
2018-06-05T03:27:44.209Z,24.50
2018-06-05T03:28:15.917Z,24.50
2018-06-05T03:28:47.633Z,24.50
2018-06-05T03:29:19.400Z,24.50
2018-06-05T03:29:51.123Z,24.50
2018-06-05T03:30:22.841Z,24.50
2018-06-05T03:30:54.602Z,24.50
2018-06-05T03:31:26.417Z,24.50
2018-06-05T03:31:58.144Z,24.50
2018-06-05T03:32:29.847Z,24.50
2018-06-05T03:33:01.582Z,24.50
2018-06-05T03:33:33.276Z,24.50
2018-06-05T03:34:05.026Z,24.50
2018-06-05T03:34:36.719Z,24.50
2018-06-05T03:35:08.430Z,24.50
2018-06-05T03:35:40.167Z,24.50
2018-06-05T03:36:11.876Z,24.50
2018-06-05T03:36:43.617Z,24.50
2018-06-05T03:37:15.314Z,24.50
2018-06-05T03:37:47.058Z,24.50
2018-06-05T03:38:18.784Z,24.50
2018-06-05T03:38:50.514Z,24.50
2018-06-05T03:39:22.251Z,24.50
2018-06-05T03:39:53.961Z,24.50
2018-06-05T03:40:25.670Z,24.40
2018-06-05T03:40:57.382Z,24.50
2018-06-05T03:41:29.147Z,24.40
2018-06-05T03:42:00.894Z,24.40
2018-06-05T03:42:32.667Z,24.40
2018-06-05T03:43:04.406Z,24.40
2018-06-05T03:43:36.121Z,24.40
2018-06-05T03:44:07.849Z,24.40
2018-06-05T03:44:39.578Z,24.50
2018-06-05T03:45:11.337Z,24.50
2018-06-05T03:45:43.037Z,24.40
2018-06-05T03:46:14.778Z,24.50
2018-06-05T03:46:46.531Z,24.40
2018-06-05T03:47:18.257Z,24.40
2018-06-05T03:47:49.970Z,24.40
2018-06-05T03:48:21.676Z,24.40
2018-06-05T03:48:53.389Z,24.40
2018-06-05T03:49:25.156Z,24.40
2018-06-05T03:49:56.873Z,24.40
2018-06-05T03:50:28.577Z,24.40
2018-06-05T03:51:00.322Z,24.50
2018-06-05T03:51:32.049Z,24.40
2018-06-05T03:52:03.770Z,24.40
2018-06-05T03:52:35.519Z,24.50
2018-06-05T03:53:07.213Z,24.40
2018-06-05T03:53:38.934Z,24.50
2018-06-05T03:54:10.645Z,24.40
2018-06-05T03:54:42.360Z,24.40
2018-06-05T03:55:14.066Z,24.40
2018-06-05T03:55:45.785Z,24.40
2018-06-05T03:56:17.530Z,24.40
2018-06-05T03:56:49.241Z,24.40
2018-06-05T03:57:20.967Z,24.40
2018-06-05T03:57:52.686Z,24.40
2018-06-05T03:58:24.398Z,24.40
2018-06-05T03:58:56.111Z,24.50
2018-06-05T03:59:27.874Z,24.40
2018-06-05T03:59:59.555Z,24.40
2018-06-05T04:00:31.270Z,24.40
2018-06-05T04:01:03.138Z,24.40
2018-06-05T04:01:34.818Z,24.50
2018-06-05T04:02:06.537Z,24.50
2018-06-05T04:02:38.252Z,24.40
2018-06-05T04:03:09.974Z,24.40
2018-06-05T04:03:41.672Z,24.40
2018-06-05T04:04:13.401Z,24.40
2018-06-05T04:04:45.102Z,24.40
2018-06-05T04:05:16.841Z,24.50
2018-06-05T04:05:48.555Z,24.40
2018-06-05T04:06:20.270Z,24.50
2018-06-05T04:06:51.989Z,24.40
2018-06-05T04:07:23.715Z,24.40
2018-06-05T04:07:55.423Z,24.40
2018-06-05T04:08:27.125Z,24.40
2018-06-05T04:08:58.868Z,24.40
2018-06-05T04:09:30.604Z,24.40
2018-06-05T04:10:02.318Z,24.50
2018-06-05T04:10:34.042Z,24.40
2018-06-05T04:11:05.781Z,24.40
2018-06-05T04:11:37.501Z,24.40
2018-06-05T04:12:09.222Z,24.40
2018-06-05T04:12:40.921Z,24.40
2018-06-05T04:13:12.694Z,24.30
2018-06-05T04:13:44.369Z,24.30
2018-06-05T04:14:16.121Z,24.30
2018-06-05T04:14:47.893Z,24.30
2018-06-05T04:15:19.597Z,24.30
2018-06-05T04:15:51.314Z,24.30
2018-06-05T04:16:23.070Z,24.30
2018-06-05T04:16:54.783Z,24.30
2018-06-05T04:17:26.491Z,24.30
2018-06-05T04:17:58.217Z,24.30
2018-06-05T04:18:30.169Z,24.30
2018-06-05T04:19:01.866Z,24.30
2018-06-05T04:19:33.570Z,24.30
2018-06-05T04:20:05.294Z,24.30
2018-06-05T04:21:08.985Z,24.30
2018-06-05T04:21:40.729Z,24.30
2018-06-05T04:22:12.424Z,24.30
2018-06-05T04:22:44.145Z,24.30
2018-06-05T04:23:15.840Z,24.30
2018-06-05T04:23:47.591Z,24.30
2018-06-05T04:24:19.316Z,24.20
2018-06-05T04:24:51.051Z,24.20
2018-06-05T04:25:22.773Z,24.20
2018-06-05T04:25:54.482Z,24.20
2018-06-05T04:26:26.218Z,24.30
2018-06-05T04:26:57.916Z,24.20
2018-06-05T04:27:29.644Z,24.30
2018-06-05T04:28:01.332Z,24.30
2018-06-05T04:28:33.031Z,24.30
2018-06-05T04:29:04.747Z,24.30
2018-06-05T04:29:36.456Z,24.30
2018-06-05T04:30:08.162Z,24.30
2018-06-05T04:30:39.904Z,24.30
2018-06-05T04:31:11.614Z,24.20
2018-06-05T04:31:43.362Z,24.20
2018-06-05T04:32:15.139Z,24.20
2018-06-05T04:32:46.967Z,24.20
2018-06-05T04:33:18.797Z,24.20
2018-06-05T04:33:50.513Z,24.30
2018-06-05T04:34:22.226Z,24.20
2018-06-05T04:34:53.930Z,24.20
2018-06-05T04:35:25.647Z,24.20
2018-06-05T04:35:57.375Z,24.20
2018-06-05T04:36:29.081Z,24.20
2018-06-05T04:37:00.804Z,24.20
2018-06-05T04:37:32.507Z,24.20
2018-06-05T04:38:04.205Z,24.20
2018-06-05T04:38:35.953Z,24.20
2018-06-05T04:39:07.672Z,24.20
2018-06-05T04:39:39.370Z,24.10
2018-06-05T04:40:11.098Z,24.10
2018-06-05T04:40:42.805Z,24.10
2018-06-05T04:41:14.528Z,24.10
2018-06-05T04:41:46.254Z,24.10
2018-06-05T04:42:17.977Z,24.10
2018-06-05T04:42:49.710Z,24.10
2018-06-05T04:43:21.407Z,24.10
2018-06-05T04:43:53.124Z,24.00
2018-06-05T04:44:24.838Z,24.10
2018-06-05T04:44:56.660Z,24.00
2018-06-05T04:45:28.362Z,24.10
2018-06-05T04:46:00.118Z,24.00
2018-06-05T04:46:31.825Z,24.10
2018-06-05T04:47:03.526Z,24.10
2018-06-05T04:47:35.243Z,24.10
2018-06-05T04:48:06.956Z,24.10
2018-06-05T04:48:38.702Z,24.10
2018-06-05T04:49:10.399Z,24.10
2018-06-05T04:49:42.120Z,24.10
2018-06-05T04:50:13.842Z,24.10
2018-06-05T04:50:45.552Z,24.10
2018-06-05T04:51:17.257Z,24.10
2018-06-05T04:51:48.977Z,24.10
2018-06-05T04:52:20.691Z,24.10
2018-06-05T04:52:52.406Z,24.10
2018-06-05T04:53:24.112Z,24.10
2018-06-05T04:53:55.840Z,24.10
2018-06-05T04:54:27.542Z,24.10
2018-06-05T04:54:59.261Z,24.10
2018-06-05T04:55:31.010Z,24.10
2018-06-05T04:56:02.723Z,24.10
2018-06-05T04:56:34.433Z,24.10
2018-06-05T04:57:06.280Z,24.10
2018-06-05T04:57:38.028Z,24.10
2018-06-05T04:58:09.718Z,24.10
2018-06-05T04:58:41.448Z,24.10
2018-06-05T04:59:13.148Z,24.10
2018-06-05T04:59:44.865Z,24.10
2018-06-05T05:00:16.616Z,24.10
2018-06-05T05:00:48.327Z,24.10
2018-06-05T05:01:20.027Z,24.10
2018-06-05T05:01:51.765Z,24.10
2018-06-05T05:02:23.469Z,24.10
2018-06-05T05:02:55.186Z,24.10
2018-06-05T05:03:26.997Z,24.10
2018-06-05T05:03:58.649Z,24.00
2018-06-05T05:04:30.374Z,24.00
2018-06-05T05:05:02.092Z,24.00
2018-06-05T05:05:33.849Z,24.00
2018-06-05T05:06:05.623Z,24.00
2018-06-05T05:06:37.345Z,24.00
2018-06-05T05:07:09.072Z,24.00
2018-06-05T05:07:40.897Z,24.00
2018-06-05T05:08:12.569Z,24.00
2018-06-05T05:08:44.283Z,24.00
2018-06-05T05:09:15.999Z,23.90
2018-06-05T05:09:47.701Z,23.90
2018-06-05T05:10:19.420Z,23.90
2018-06-05T05:10:51.155Z,23.90
2018-06-05T05:11:22.855Z,23.90
2018-06-05T05:11:54.584Z,23.90
2018-06-05T05:12:26.299Z,23.90
2018-06-05T05:12:58.002Z,23.90
2018-06-05T05:13:29.736Z,23.90
2018-06-05T05:14:01.554Z,23.90
2018-06-05T05:14:33.300Z,23.90
2018-06-05T05:15:05.009Z,23.90
2018-06-05T05:15:36.721Z,23.90
2018-06-05T05:16:08.434Z,23.80
2018-06-05T05:16:40.151Z,23.80
2018-06-05T05:17:11.868Z,23.80
2018-06-05T05:17:43.575Z,23.80
2018-06-05T05:18:15.318Z,23.80
2018-06-05T05:18:47.010Z,23.80
2018-06-05T05:19:18.718Z,23.80
2018-06-05T05:19:50.420Z,23.80
2018-06-05T05:20:22.128Z,23.80
2018-06-05T05:20:53.833Z,23.80
2018-06-05T05:21:25.548Z,23.90
2018-06-05T05:21:57.259Z,23.80
2018-06-05T05:22:28.961Z,23.80
2018-06-05T05:23:00.670Z,23.80
2018-06-05T05:23:32.404Z,23.90
2018-06-05T05:24:04.118Z,23.90
2018-06-05T05:24:35.826Z,23.90
2018-06-05T05:25:07.543Z,23.90
2018-06-05T05:25:39.251Z,23.90
2018-06-05T05:26:11.001Z,23.90
2018-06-05T05:26:42.676Z,23.90
2018-06-05T05:27:14.396Z,23.90
2018-06-05T05:27:46.113Z,23.90
2018-06-05T05:28:17.811Z,23.90
2018-06-05T05:28:49.534Z,23.90
2018-06-05T05:29:21.249Z,23.90
2018-06-05T05:29:52.978Z,23.90
2018-06-05T05:30:24.661Z,23.90
2018-06-05T05:30:56.388Z,23.90
2018-06-05T05:31:28.090Z,23.90
2018-06-05T05:31:59.793Z,23.90
2018-06-05T05:32:31.518Z,23.90
2018-06-05T05:33:03.214Z,23.90
2018-06-05T05:33:34.925Z,23.90
2018-06-05T05:34:06.671Z,23.90
2018-06-05T05:34:38.378Z,23.90
2018-06-05T05:35:10.099Z,23.90
2018-06-05T05:35:41.833Z,23.90
2018-06-05T05:36:13.545Z,23.90
2018-06-05T05:36:45.257Z,23.90
2018-06-05T05:37:17.022Z,23.90
2018-06-05T05:37:48.742Z,23.90
2018-06-05T05:38:20.453Z,23.90
2018-06-05T05:38:52.280Z,23.80
2018-06-05T05:39:23.977Z,23.90
2018-06-05T05:39:55.699Z,23.90
2018-06-05T05:40:27.430Z,23.80
2018-06-05T05:40:59.141Z,23.80
2018-06-05T05:41:30.850Z,23.90
2018-06-05T05:42:02.600Z,23.80
2018-06-05T05:42:34.277Z,23.80
2018-06-05T05:43:06.076Z,23.80
2018-06-05T05:43:37.777Z,23.80
2018-06-05T05:44:09.500Z,23.80
2018-06-05T05:44:41.214Z,23.80
2018-06-05T05:45:12.929Z,23.80
2018-06-05T05:45:44.632Z,23.80
2018-06-05T05:46:16.351Z,23.80
2018-06-05T05:46:48.065Z,23.80
2018-06-05T05:47:19.809Z,23.80
2018-06-05T05:47:51.541Z,23.80
2018-06-05T05:48:23.250Z,23.80
2018-06-05T05:48:55.007Z,23.80
2018-06-05T05:49:26.706Z,23.80
2018-06-05T05:49:58.422Z,23.80
2018-06-05T05:50:30.140Z,23.80
2018-06-05T05:51:01.854Z,23.80
2018-06-05T05:51:33.579Z,23.80
2018-06-05T05:52:05.285Z,23.80
2018-06-05T05:52:37.003Z,23.80
2018-06-05T05:53:08.706Z,23.80
2018-06-05T05:53:40.417Z,23.80
2018-06-05T05:54:12.127Z,23.80
2018-06-05T05:54:43.837Z,23.80
2018-06-05T05:55:15.549Z,23.80
2018-06-05T05:55:47.274Z,23.80
2018-06-05T05:56:18.987Z,23.80
2018-06-05T05:56:50.699Z,23.80
2018-06-05T05:57:22.481Z,23.80
2018-06-05T05:57:54.188Z,23.80
2018-06-05T05:58:25.886Z,23.80
2018-06-05T05:58:57.600Z,23.80
2018-06-05T05:59:29.310Z,23.80
2018-06-05T06:00:01.016Z,23.80
2018-06-05T06:00:32.723Z,23.80
2018-06-05T06:01:04.429Z,23.80
2018-06-05T06:01:36.138Z,23.80
2018-06-05T06:02:07.954Z,23.80
2018-06-05T06:02:39.662Z,23.80
2018-06-05T06:03:11.383Z,23.80
2018-06-05T06:03:43.121Z,23.80
2018-06-05T06:04:14.846Z,23.80
2018-06-05T06:04:46.521Z,23.80
2018-06-05T06:05:18.236Z,23.90
2018-06-05T06:05:49.937Z,23.90
2018-06-05T06:06:21.657Z,23.90
2018-06-05T06:06:53.388Z,23.90
2018-06-05T06:07:25.140Z,23.80
2018-06-05T06:07:56.835Z,23.80
2018-06-05T06:09:00.533Z,23.80
2018-06-05T06:09:32.269Z,23.80
2018-06-05T06:10:03.977Z,23.80
2018-06-05T06:10:35.702Z,23.80
2018-06-05T06:11:07.402Z,23.80
2018-06-05T06:11:39.120Z,23.80
2018-06-05T06:12:10.851Z,23.80
2018-06-05T06:12:42.544Z,23.80
2018-06-05T06:13:14.279Z,23.80
2018-06-05T06:13:45.998Z,23.90
2018-06-05T06:14:17.707Z,23.80
2018-06-05T06:14:49.440Z,23.90
2018-06-05T06:15:21.174Z,23.90
2018-06-05T06:15:52.898Z,23.90
2018-06-05T06:16:24.586Z,23.90
2018-06-05T06:16:56.295Z,23.90
2018-06-05T06:17:28.027Z,23.90
2018-06-05T06:17:59.734Z,23.90
2018-06-05T06:18:31.461Z,23.90
2018-06-05T06:19:03.172Z,23.90
2018-06-05T06:19:34.870Z,23.90
2018-06-05T06:20:06.636Z,23.90
2018-06-05T06:20:38.378Z,23.90
2018-06-05T06:21:10.076Z,23.90
2018-06-05T06:21:41.795Z,23.90
2018-06-05T06:22:13.634Z,23.90
2018-06-05T06:22:45.411Z,23.80
2018-06-05T06:23:17.117Z,23.90
2018-06-05T06:23:48.846Z,23.90
2018-06-05T06:24:20.571Z,23.90
2018-06-05T06:24:52.289Z,23.90
2018-06-05T06:25:23.997Z,23.90
2018-06-05T06:25:55.747Z,23.90
2018-06-05T06:26:27.425Z,23.90
2018-06-05T06:26:59.206Z,23.90
2018-06-05T06:27:30.961Z,23.90
2018-06-05T06:28:02.673Z,23.90
2018-06-05T06:28:34.385Z,23.90
2018-06-05T06:29:06.083Z,23.90
2018-06-05T06:29:37.794Z,23.90
2018-06-05T06:30:09.498Z,23.90
2018-06-05T06:30:41.212Z,23.90
2018-06-05T06:31:12.918Z,24.00
2018-06-05T06:31:44.637Z,24.00
2018-06-05T06:32:16.364Z,24.00
2018-06-05T06:32:48.080Z,24.00
2018-06-05T06:33:19.787Z,24.00
2018-06-05T06:33:51.501Z,24.00
2018-06-05T06:34:23.215Z,24.10
2018-06-05T06:34:54.926Z,24.10
2018-06-05T06:35:26.662Z,24.10
2018-06-05T06:35:58.371Z,24.10
2018-06-05T06:37:02.062Z,24.10
2018-06-05T06:37:33.777Z,24.10
2018-06-05T06:38:05.498Z,24.10
2018-06-05T06:38:37.249Z,24.10
2018-06-05T06:39:08.897Z,24.10
2018-06-05T06:39:40.606Z,24.10
2018-06-05T06:40:12.315Z,24.10
2018-06-05T06:40:44.014Z,24.10
2018-06-05T06:41:15.743Z,24.10
2018-06-05T06:41:47.464Z,24.10
2018-06-05T06:42:19.187Z,24.10
2018-06-05T06:42:50.899Z,24.10
2018-06-05T06:43:22.610Z,24.10
2018-06-05T06:43:54.314Z,24.10
2018-06-05T06:44:26.031Z,24.10
2018-06-05T06:44:57.744Z,24.10
2018-06-05T06:45:29.438Z,24.10
2018-06-05T06:46:01.164Z,24.10
2018-06-05T06:46:32.862Z,24.00
2018-06-05T06:47:04.591Z,24.10
2018-06-05T06:47:36.314Z,24.10
2018-06-05T06:48:08.042Z,24.00
2018-06-05T06:48:39.844Z,24.10
2018-06-05T06:49:11.498Z,24.10
2018-06-05T06:49:43.206Z,24.10
2018-06-05T06:50:14.919Z,24.10
2018-06-05T06:50:46.626Z,24.10
2018-06-05T06:51:18.375Z,24.10